KMFR/MFR METAR and TAF weather

Enter ICAO airport designator
Station Type Date Time Source
KMFR METAR 2019/02/23 22:53 UTC NOAA

KMFR 232253Z 00000KT 10SM BKN050 OVC065 07/02 A3016 RMK AO2 SLP219 T00720017


Station Type Date Time Source
KMFR Decoded METAR 2019/02/23 22:53 UTC NOAA

ROGUE VALLEY INTERNATIONAL AIRPORT, OR, United States (KMFR) 42-23N 122-53W 396M
Feb 23, 2019 - 05:53 PM EST / 2019.02.23 2253 UTC
Wind: Calm:0
Visibility: 10 mile(s):0
Sky conditions: overcast
Temperature: 45.0 F (7.2 C)
Dew Point: 35.1 F (1.7 C)
Relative Humidity: 68%
Pressure (altimeter): 30.16 in. Hg (1021 hPa)
ob: KMFR 232253Z 00000KT 10SM BKN050 OVC065 07/02 A3016 RMK AO2 SLP219 T00720017
cycle: 23

Station Type Date Time Source
KMFR TAF 2019/02/23 18:36 UTC NOAA

TAF KMFR 231733Z 2318/2418 VRB03KT P6SM -RA BKN035 OVC050
FM240800 12004KT P6SM -RA OVC050
FM241500 16006KT 4SM -RA BKN025 OVC050


Example: see airport list